Главная страница
METAR-TAF:

METAR-TAF

Аэропорты :

Туношна

Ярославль, Россия

широта: 57-33-38N, долгота: 040-09-27E, высота над уровнем моря: 87 м

Текущие метеонаблюдения

Эта сводка был подготовлена 16 минут назад, в 23:30 UTC
Ветер 6 Узел от юго-западный
Температура 17°C
Влажность 88%
Давление 1013 hPa
Видимость 10 км и более
Нет облачности ниже 1500 м, и нет кучево-дождевой облачности

METAR: UUDL 192330Z 22003MPS CAVOK 17/15 Q1013 R23/010060 NOSIG RMK QFE751

Время: 02:46 (23:46 UTC)

Прогноз

Эта сводка был подготовлена 51 минут назад, в 22:55 UTC
Прогноз действительный с 20-го 00 UTC до 20-го 24 UTC
Ветер 6 Узел от западный-юго-западный
Видимость 10 км и более
Рассеянная облачность на высоте 4000 фута
временами
С 20-го 00 UTC до 20-го 12 UTC
Рассеянная облачность на высоте 2000 фута, Кучево-дождевые.
Рассеянная облачность на высоте 4000 фута
небольшие ливневые дожди

TAF: UUDL 192255Z 2000/2024 24003MPS 9999 BKN040 TEMPO 2000/2012 -SHRA BKN020CB BKN040

Метеонаблюдения и прогнозы для более 4000 аэропортов (сводки METAR и TAF).

Имеющиеся станции представлены на карте желтыми и красными точками.

Чтобы увидеть название станции, наведите на нее мышь.

Затем щелкните, чтобы увидеть метеонаблюдения и метеопрогнозы.

Управление картой: чтобы увеличить масштаб, щелкните зеленые кнопки с черным крестиком; чтобы уменьшить масштаб, щелкните зеленую кнопку с тире; для просмотра соседних карт щелкайте зеленые стрелки.


METAR-TAF: